METAR Data
IDs: Format: Raw Decoded Include TAF

Data at: 1526 UTC 18 Aug 2019

PAWN 181456Z AUTO 36006KT 10SM CLR 04/02 A3055 RMK AO2 SLP358 T00390022 58008
PAWN 181356Z AUTO 33006KT 10SM CLR 04/02 A3056 RMK AO2 SLP361 T00440017
PAWN 181256Z AUTO 33004KT 10SM CLR 05/02 A3057 RMK AO2 SLP363 T00500022
PAWN 181156Z AUTO 35004KT 10SM CLR 06/02 A3057 RMK AO2 SLP366 T00560022 10122 20050 58006
PAWN 181056Z AUTO 36005KT 10SM CLR 06/02 A3059 RMK AO2 SLP370 T00560022
PAWN 180956Z AUTO 36007KT 10SM CLR 06/03 A3059 RMK AO2 SLP369 T00610028
PAWN 180856Z AUTO 35005KT 10SM CLR 07/03 A3059 RMK AO2 SLP372 T00720033 55003
PAWN 180656Z AUTO 34006KT 10SM CLR 09/04 A3060 RMK AO2 SLP373 T00940044
PAWN 180521Z AUTO 31005KT 8SM FEW001 13/05 A3061 RMK AO2
PAWN 180456Z AUTO 33004KT 7SM CLR 14/04 A3061 RMK AO2 SLP377 T01440039
PAWN 180356Z AUTO 36005KT 8SM CLR 17/03 A3062 RMK AO2 SLP381 T01670028
PAWN 180256Z AUTO 03006KT 8SM CLR 17/02 A3063 RMK AO2 SLP385 T01670017 58010
PAWN 180156Z AUTO VRB06KT 10SM CLR 17/01 A3065 RMK AO2 SLP389 T01670006
PAWN 180056Z AUTO 03007KT 7SM CLR 16/02 A3065 RMK AO2 SLP391 T01610017
PAWN 172356Z AUTO 00000KT 10SM CLR 16/02 A3066 RMK AO2 SLP395 T01560017 10156 20078 58011
PAWN 172256Z AUTO 02007KT 10SM CLR 15/02 A3067 RMK AO2 SLP399 T01500017
PAWN 172156Z AUTO 01008KT 10SM CLR 13/02 A3068 RMK AO2 SLP402 T01330022
PAWN 171556Z AUTO 35008KT 10SM CLR 04/02 A3068 RMK AO2 SLP400 T00440017
PAWN 171456Z AUTO 35008KT 10SM CLR 04/02 A3067 RMK AO2 SLP399 T00390017 50004
PAWN 171356Z AUTO 36007KT 10SM CLR 03/02 A3068 RMK AO2 SLP399 T00330017
PAWN 171156Z AUTO 34007KT 10SM CLR 04/02 A3066 RMK AO2 SLP394 T00440017 10122 20033 51018
PAWN 171056Z AUTO 01010KT 10SM CLR 06/02 A3064 RMK AO2 SLP389 T00610022
PAWN 170856Z AUTO 01007KT 10SM CLR 07/03 A3061 RMK AO2 SLP378 T00670028 51025
PAWN 170756Z AUTO 36006KT 10SM CLR 07/03 A3059 RMK AO2 SLP370 T00720033 401500050
PAWN 170656Z AUTO 35008KT 10SM CLR 10/05 A3057 RMK AO2 SLP361 T01000050
PAWN 170556Z AUTO 02008KT 10SM CLR 12/04 A3054 RMK AO2 SLP351 T01220044 10150 20122 52021
PAWN 170520Z AUTO 02007KT 10SM FEW002 13/03 A3052 RMK AO2
PAWN 170356Z AUTO 03010KT 10SM CLR 14/03 A3050 RMK AO2 SLP339 T01390028